Time;durP1;ratioP1;P1;durP2;ratioP2;P2;SDS_P1;SDS_P2;PMS_P1;PMS_P2;Temp;Humidity;BMP_temperature;BMP_pressure;BME280_temperature;BME280_humidity;BME280_pressure;Samples;Min_cycle;Max_cycle;Signal;HPM_P1;HPM_P2
2024/01/09 00:01:29;;;;;;;5.75;2.97;;;-3.80;99.90;;;;;;5055115;28;20588;-79
2024/01/09 00:03:55;;;;;;;5.72;2.75;;;-4.40;99.90;;;;;;5067686;28;20297;-79
2024/01/09 00:06:24;;;;;;;4.85;2.63;;;-4.40;99.90;;;;;;5070900;28;20235;-78
2024/01/09 00:08:51;;;;;;;3.63;1.83;;;-4.30;99.90;;;;;;5068695;28;20205;-78
2024/01/09 00:11:17;;;;;;;6.97;3.28;;;-4.40;99.90;;;;;;5069848;28;20225;-78
2024/01/09 00:13:44;;;;;;;6.60;3.08;;;-4.20;99.90;;;;;;5069267;28;20260;-78
2024/01/09 00:16:11;;;;;;;7.13;3.65;;;-4.50;99.90;;;;;;5068792;28;20298;-79
2024/01/09 00:18:38;;;;;;;4.15;2.20;;;;;;;;;;5059526;28;20205;-80
2024/01/09 00:21:05;;;;;;;3.45;2.35;;;-4.50;99.90;;;;;;5058919;28;20209;-80
2024/01/09 00:23:33;;;;;;;4.32;2.30;;;-4.60;99.90;;;;;;5057753;28;20225;-80
2024/01/09 00:26:00;;;;;;;4.40;2.90;;;;;;;;;;5058034;28;20217;-81
2024/01/09 00:28:27;;;;;;;4.68;2.83;;;-4.50;99.90;;;;;;5057074;28;20226;-79
2024/01/09 00:30:54;;;;;;;3.78;2.20;;;-4.60;99.90;;;;;;5057198;28;20209;-81
2024/01/09 00:33:21;;;;;;;4.35;2.45;;;-4.50;99.90;;;;;;5056483;28;20316;-79
2024/01/09 00:35:47;;;;;;;4.88;2.55;;;-4.60;99.90;;;;;;5056600;28;20216;-79
2024/01/09 00:38:14;;;;;;;3.45;2.33;;;-5.00;99.90;;;;;;5056117;28;20215;-80
2024/01/09 00:40:42;;;;;;;5.95;2.88;;;-4.50;99.90;;;;;;5056153;28;20585;-80
2024/01/09 00:43:09;;;;;;;4.75;3.03;;;-4.60;99.90;;;;;;5057068;28;20233;-79
2024/01/09 00:45:36;;;;;;;4.25;2.22;;;-4.50;99.90;;;;;;5055948;28;20451;-80
2024/01/09 00:48:02;;;;;;;3.75;1.88;;;;;;;;;;5055779;28;20300;-80
2024/01/09 00:50:29;;;;;;;5.32;2.42;;;;;;;;;;5055015;28;20197;-79
2024/01/09 00:52:56;;;;;;;8.27;2.17;;;-4.60;99.90;;;;;;5055495;28;20231;-79
2024/01/09 00:55:23;;;;;;;2.85;1.50;;;-4.10;99.90;;;;;;5056099;28;20863;-79
2024/01/09 00:57:51;;;;;;;4.32;1.85;;;-4.60;99.90;;;;;;5058993;28;20212;-79
2024/01/09 01:00:18;;;;;;;4.03;2.00;;;-4.60;99.90;;;;;;5059628;28;20665;-80
2024/01/09 01:02:45;;;;;;;4.78;2.97;;;;;;;;;;5059757;28;20891;-78
2024/01/09 01:05:14;;;;;;;3.22;1.95;;;-4.70;99.90;;;;;;5059344;28;20430;-78
2024/01/09 01:07:41;;;;;;;4.55;2.33;;;-4.70;99.90;;;;;;5060635;28;20605;-80
2024/01/09 01:10:11;;;;;;;4.35;1.85;;;-4.70;99.90;;;;;;5059764;28;20212;-79
2024/01/09 01:12:38;;;;;;;4.05;1.90;;;;;;;;;;5061200;28;20229;-80
2024/01/09 01:15:07;;;;;;;8.23;2.95;;;-3.90;99.90;;;;;;5060181;28;20297;-79
2024/01/09 01:17:34;;;;;;;3.08;1.83;;;-4.70;99.90;;;;;;5059402;28;20265;-80
2024/01/09 01:20:01;;;;;;;7.07;2.33;;;-4.70;99.90;;;;;;5059277;28;20205;-79
2024/01/09 01:22:28;;;;;;;6.10;2.95;;;;;;;;;;5059026;28;20264;-80
2024/01/09 01:24:55;;;;;;;5.43;2.10;;;-4.70;99.90;;;;;;5059242;28;20216;-81
2024/01/09 01:27:23;;;;;;;7.80;2.88;;;-4.80;99.90;;;;;;5058281;28;20229;-80
2024/01/09 01:29:50;;;;;;;4.38;2.70;;;-4.70;99.90;;;;;;5067484;28;20216;-80
2024/01/09 01:32:18;;;;;;;5.00;2.83;;;-4.70;99.90;;;;;;5057914;28;20304;-77
2024/01/09 01:34:45;;;;;;;5.00;2.42;;;-4.80;99.90;;;;;;5059398;28;20296;-77
2024/01/09 01:37:13;;;;;;;4.93;2.28;;;;;;;;;;5067361;28;20289;-81
2024/01/09 01:39:39;;;;;;;5.60;2.55;;;-4.80;99.90;;;;;;5058411;28;20269;-80
2024/01/09 01:42:06;;;;;;;5.70;2.50;;;-4.90;99.90;;;;;;5058451;28;20887;-80
2024/01/09 01:44:33;;;;;;;5.75;2.33;;;-4.90;99.90;;;;;;5058400;28;20322;-78
2024/01/09 01:47:00;;;;;;;5.93;2.65;;;-4.80;99.90;;;;;;5057379;28;20225;-80
2024/01/09 01:49:28;;;;;;;4.25;1.80;;;-4.90;99.90;;;;;;5058268;28;20229;-80
2024/01/09 01:51:55;;;;;;;3.75;2.10;;;;;;;;;;5057653;28;20224;-79
2024/01/09 01:54:23;;;;;;;3.83;2.25;;;-4.80;99.90;;;;;;5057701;28;20304;-79
2024/01/09 01:56:51;;;;;;;5.72;2.05;;;-4.80;99.90;;;;;;5054603;28;20236;-80
2024/01/09 01:59:21;;;;;;;6.90;2.47;;;-4.80;99.90;;;;;;5061861;28;20205;-79
2024/01/09 02:01:48;;;;;;;5.10;2.67;;;-4.90;99.90;;;;;;5058094;28;20205;-81
2024/01/09 02:04:15;;;;;;;3.92;2.50;;;;;;;;;;5058477;28;20233;-81
2024/01/09 02:06:43;;;;;;;5.80;2.55;;;-4.80;99.90;;;;;;5057756;28;20300;-80
2024/01/09 02:09:10;;;;;;;2.83;2.00;;;-4.90;99.90;;;;;;5056844;28;20209;-79
2024/01/09 02:11:37;;;;;;;3.38;2.58;;;-4.90;99.90;;;;;;5057407;28;20205;-79
2024/01/09 02:14:04;;;;;;;3.42;2.10;;;;;;;;;;5058544;28;20236;-80
2024/01/09 02:16:31;;;;;;;5.40;2.40;;;-4.90;99.90;;;;;;5057078;28;20292;-80
2024/01/09 02:18:58;;;;;;;4.75;2.38;;;-5.00;99.90;;;;;;5057577;28;20212;-79
2024/01/09 02:21:25;;;;;;;4.95;2.92;;;-4.80;99.90;;;;;;5057520;28;20274;-80
2024/01/09 02:23:53;;;;;;;4.57;2.67;;;-4.80;99.90;;;;;;5048967;28;20233;-80
2024/01/09 02:26:21;;;;;;;6.57;3.03;;;-4.90;99.90;;;;;;5057451;28;20209;-81
2024/01/09 02:28:51;;;;;;;5.47;2.10;;;-4.90;99.90;;;;;;5057482;28;20287;-80
2024/01/09 02:31:19;;;;;;;4.05;2.30;;;-5.50;99.90;;;;;;5056232;28;20292;-80
2024/01/09 02:33:47;;;;;;;4.70;2.05;;;-4.90;99.90;;;;;;5058499;28;20304;-81
2024/01/09 02:36:14;;;;;;;4.20;2.08;;;-4.90;99.90;;;;;;5058339;28;20209;-79
2024/01/09 02:38:41;;;;;;;6.43;2.92;;;-5.10;99.90;;;;;;5058170;28;20594;-79
2024/01/09 02:41:07;;;;;;;4.10;2.08;;;-5.00;99.90;;;;;;5058202;28;20239;-79
2024/01/09 02:43:34;;;;;;;6.90;3.65;;;-5.00;99.90;;;;;;5057540;28;20225;-80
2024/01/09 02:46:01;;;;;;;2.78;1.85;;;;;;;;;;5057895;28;20304;-80
2024/01/09 02:48:29;;;;;;;3.80;2.45;;;-5.00;99.90;;;;;;5055060;28;20233;-80
2024/01/09 02:50:56;;;;;;;3.70;1.80;;;-5.00;99.90;;;;;;5057268;28;20206;-81
2024/01/09 02:53:23;;;;;;;5.05;3.53;;;;;;;;;;5057308;28;20233;-80
2024/01/09 02:55:50;;;;;;;5.90;2.42;;;-5.10;99.90;;;;;;5058159;28;20602;-79
2024/01/09 02:58:17;;;;;;;6.50;2.72;;;-5.00;99.90;;;;;;5056125;28;20209;-81
2024/01/09 03:00:43;;;;;;;5.85;2.40;;;-4.80;99.90;;;;;;5071032;28;20201;-79
2024/01/09 03:03:10;;;;;;;4.40;2.45;;;-4.90;99.90;;;;;;5068294;28;20293;-79
2024/01/09 03:05:38;;;;;;;5.43;2.63;;;-5.00;99.90;;;;;;5070901;28;20216;-79
2024/01/09 03:08:06;;;;;;;7.30;2.60;;;-5.00;99.90;;;;;;5074197;28;20221;-79
2024/01/09 03:10:33;;;;;;;4.38;2.40;;;-4.50;99.90;;;;;;5068959;28;20801;-78
2024/01/09 03:13:00;;;;;;;8.40;2.22;;;-5.00;99.90;;;;;;5063725;28;20236;-80
2024/01/09 03:15:27;;;;;;;4.03;1.73;;;-5.00;99.90;;;;;;5060264;28;20205;-80
2024/01/09 03:17:54;;;;;;;5.45;3.03;;;;;;;;;;5060584;28;20273;-80
2024/01/09 03:20:21;;;;;;;5.75;2.53;;;-5.10;99.90;;;;;;5068888;28;20277;-78
2024/01/09 03:22:49;;;;;;;5.78;2.15;;;-5.10;99.90;;;;;;5067279;28;20345;-79
2024/01/09 03:25:15;;;;;;;5.93;2.42;;;-5.10;99.90;;;;;;5068218;28;20205;-80
2024/01/09 03:27:42;;;;;;;4.13;2.63;;;-5.20;99.90;;;;;;5075897;28;20319;-78
2024/01/09 03:30:10;;;;;;;6.40;3.08;;;-5.10;99.90;;;;;;5067695;28;20205;-78
2024/01/09 03:32:37;;;;;;;7.40;2.97;;;-5.10;99.90;;;;;;5068156;28;20316;-78
2024/01/09 03:35:04;;;;;;;5.72;2.92;;;-5.10;99.90;;;;;;5068412;28;20216;-78
2024/01/09 03:37:31;;;;;;;5.40;3.60;;;-5.10;99.90;;;;;;5068625;28;20693;-78
2024/01/09 03:39:59;;;;;;;5.25;2.75;;;-4.70;99.90;;;;;;5072802;28;20272;-79
2024/01/09 03:42:27;;;;;;;5.13;2.50;;;;;;;;;;5068190;28;20256;-81
2024/01/09 03:44:53;;;;;;;5.20;3.00;;;-5.10;99.90;;;;;;5058832;28;20213;-81
2024/01/09 03:47:20;;;;;;;7.43;3.00;;;-5.20;99.90;;;;;;5058507;28;20213;-79
2024/01/09 03:49:47;;;;;;;3.45;2.35;;;-5.30;99.90;;;;;;5066754;28;20216;-81
2024/01/09 03:52:17;;;;;;;5.63;2.50;;;-4.10;99.90;;;;;;5058502;28;20230;-81
2024/01/09 03:54:44;;;;;;;3.78;2.35;;;-5.20;99.90;;;;;;5059467;28;20233;-79
2024/01/09 03:57:12;;;;;;;5.97;2.55;;;-5.20;99.90;;;;;;5052872;28;20203;-80
2024/01/09 03:59:39;;;;;;;6.40;3.25;;;;;;;;;;5057431;28;20212;-81
2024/01/09 04:02:06;;;;;;;6.05;2.35;;;-5.20;99.90;;;;;;5056763;28;20225;-81
2024/01/09 04:04:33;;;;;;;4.78;3.00;;;-5.30;99.90;;;;;;5057640;28;20300;-80
2024/01/09 04:06:59;;;;;;;7.35;2.83;;;-4.90;99.90;;;;;;5071241;28;20205;-80
2024/01/09 04:09:28;;;;;;;7.97;3.25;;;-5.20;99.90;;;;;;5067839;28;20228;-79
2024/01/09 04:11:55;;;;;;;8.52;2.67;;;-5.20;99.90;;;;;;5057181;28;20209;-79
2024/01/09 04:14:23;;;;;;;8.40;3.20;;;-5.30;99.90;;;;;;5056241;28;20209;-80
2024/01/09 04:16:50;;;;;;;6.38;3.33;;;;;;;;;;5056147;28;20604;-80
2024/01/09 04:19:17;;;;;;;4.60;2.90;;;-4.80;99.90;;;;;;5056145;28;20269;-79
2024/01/09 04:21:44;;;;;;;5.65;3.30;;;;;;;;;;5055579;28;20213;-79
2024/01/09 04:24:11;;;;;;;5.18;2.78;;;-5.20;99.90;;;;;;5055947;28;20319;-81
2024/01/09 04:26:37;;;;;;;5.72;2.65;;;-5.30;99.90;;;;;;5056103;28;20209;-81
2024/01/09 04:29:06;;;;;;;5.10;2.70;;;-5.30;99.90;;;;;;5056220;28;20639;-78
2024/01/09 04:31:34;;;;;;;5.30;3.08;;;-5.20;99.90;;;;;;5056218;28;20223;-78
2024/01/09 04:34:01;;;;;;;7.57;4.13;;;-5.20;99.90;;;;;;5061696;28;20231;-79
2024/01/09 04:36:28;;;;;;;9.02;3.55;;;-5.30;99.90;;;;;;5059090;28;20626;-80
2024/01/09 04:38:55;;;;;;;5.47;2.65;;;-5.20;99.90;;;;;;5056185;28;20219;-80
2024/01/09 04:41:22;;;;;;;5.63;3.50;;;-5.30;99.90;;;;;;5056362;28;20215;-79
2024/01/09 04:43:49;;;;;;;4.25;2.78;;;;;;;;;;5057555;28;20260;-80
2024/01/09 04:46:15;;;;;;;6.28;3.63;;;-5.40;99.90;;;;;;5056389;28;20213;-80
2024/01/09 04:48:44;;;;;;;3.20;2.35;;;-5.30;99.90;;;;;;5056281;28;20229;-80
2024/01/09 04:51:11;;;;;;;9.82;3.72;;;;;;;;;;5056022;28;20219;-80
2024/01/09 04:53:37;;;;;;;6.00;3.28;;;-5.30;99.90;;;;;;5055428;28;20235;-80
2024/01/09 04:56:05;;;;;;;4.82;3.13;;;;;;;;;;5057124;28;20582;-80
2024/01/09 04:58:32;;;;;;;6.70;3.80;;;-5.30;99.90;;;;;;5055727;28;20205;-80
2024/01/09 05:00:58;;;;;;;6.40;2.63;;;-5.20;99.90;;;;;;5055788;28;20205;-80
2024/01/09 05:03:26;;;;;;;6.15;3.50;;;;;;;;;;5055983;28;20305;-79
2024/01/09 05:05:54;;;;;;;8.10;3.97;;;-5.70;99.90;;;;;;5058861;28;20236;-79
2024/01/09 05:08:20;;;;;;;5.82;3.45;;;-4.20;99.90;;;;;;5056234;28;20313;-78
2024/01/09 05:10:48;;;;;;;7.90;4.20;;;;;;;;;;5055334;28;20209;-79
2024/01/09 05:13:14;;;;;;;5.43;2.70;;;-5.30;99.90;;;;;;5056097;28;20225;-80
2024/01/09 05:15:41;;;;;;;6.40;3.15;;;-5.10;99.90;;;;;;5055630;28;20209;-79
2024/01/09 05:18:08;;;;;;;4.57;2.65;;;-5.70;99.90;;;;;;5055291;28;20213;-80
2024/01/09 05:20:35;;;;;;;6.68;3.40;;;-4.90;99.90;;;;;;5056298;28;20657;-80
2024/01/09 05:23:03;;;;;;;6.78;3.88;;;-5.40;99.90;;;;;;5055973;28;20327;-79
2024/01/09 05:25:30;;;;;;;8.23;3.22;;;-5.40;99.90;;;;;;5056492;28;20205;-80
2024/01/09 05:27:57;;;;;;;7.30;3.05;;;;;;;;;;5062332;28;20208;-79
2024/01/09 05:30:25;;;;;;;8.18;4.18;;;-5.30;99.90;;;;;;5054286;28;20292;-78
2024/01/09 05:32:53;;;;;;;7.28;3.67;;;;;;;;;;5053884;28;20229;-80
2024/01/09 05:35:19;;;;;;;5.90;2.25;;;-5.50;99.90;;;;;;5053611;28;20670;-79
2024/01/09 05:37:46;;;;;;;6.07;2.92;;;;;;;;;;5061658;28;20209;-79
2024/01/09 05:40:15;;;;;;;5.35;2.90;;;-5.60;99.90;;;;;;5053229;28;20308;-80
2024/01/09 05:42:43;;;;;;;5.47;3.40;;;-5.50;99.90;;;;;;5052848;28;20233;-80
2024/01/09 05:45:10;;;;;;;6.22;3.83;;;-5.50;99.90;;;;;;5057255;28;20263;-78
2024/01/09 05:47:38;;;;;;;8.10;3.30;;;-5.50;99.90;;;;;;5057464;28;20292;-78
2024/01/09 05:50:06;;;;;;;6.18;3.03;;;-5.50;99.90;;;;;;5061433;28;20225;-79
2024/01/09 05:52:35;;;;;;;6.65;3.00;;;-5.50;99.90;;;;;;5064414;28;20233;-78
2024/01/09 05:55:02;;;;;;;6.88;3.35;;;-5.40;99.90;;;;;;5062418;28;20280;-78
2024/01/09 05:57:30;;;;;;;7.72;4.45;;;-5.50;99.90;;;;;;5062370;28;20233;-77
2024/01/09 05:59:57;;;;;;;8.27;3.67;;;-5.40;99.90;;;;;;5069863;28;20225;-77
2024/01/09 06:02:24;;;;;;;5.68;3.72;;;-5.50;99.90;;;;;;5067430;28;20316;-78
2024/01/09 06:04:51;;;;;;;5.65;3.80;;;-5.50;99.90;;;;;;5064589;28;20300;-80
2024/01/09 06:07:17;;;;;;;11.55;4.90;;;-5.50;99.90;;;;;;5064998;28;20219;-78
2024/01/09 06:09:45;;;;;;;7.32;4.10;;;-5.50;99.90;;;;;;5062636;28;20240;-79
2024/01/09 06:12:12;;;;;;;8.32;3.97;;;-5.50;99.90;;;;;;5059766;28;20221;-80
2024/01/09 06:14:40;;;;;;;7.53;3.78;;;-5.50;99.90;;;;;;5058361;28;20296;-80
2024/01/09 06:17:07;;;;;;;6.88;3.70;;;-5.50;99.90;;;;;;5058311;28;20316;-79
2024/01/09 06:19:34;;;;;;;8.88;3.60;;;-5.50;99.90;;;;;;5058015;28;20205;-79
2024/01/09 06:22:01;;;;;;;7.28;3.92;;;-5.50;99.90;;;;;;5057171;28;20247;-80
2024/01/09 06:24:28;;;;;;;5.80;3.90;;;-5.50;99.90;;;;;;5066193;28;20299;-80
2024/01/09 06:26:54;;;;;;;5.90;4.38;;;-5.50;99.90;;;;;;5054294;28;20217;-80
2024/01/09 06:29:23;;;;;;;8.45;4.25;;;-5.50;99.90;;;;;;5052649;28;20221;-79
2024/01/09 06:31:51;;;;;;;6.90;3.47;;;-5.60;99.90;;;;;;5056260;28;20225;-80
2024/01/09 06:34:17;;;;;;;10.43;4.97;;;-5.60;99.90;;;;;;5056589;28;20472;-80
2024/01/09 06:36:45;;;;;;;7.78;4.47;;;-5.60;99.90;;;;;;5057240;28;20209;-79
2024/01/09 06:39:13;;;;;;;7.35;3.92;;;-5.60;99.90;;;;;;5057099;28;20205;-80
2024/01/09 06:41:39;;;;;;;7.38;4.25;;;-5.60;99.90;;;;;;5055884;28;20201;-78
2024/01/09 06:44:06;;;;;;;8.60;4.53;;;-5.60;99.90;;;;;;5056741;28;20209;-78
2024/01/09 06:46:34;;;;;;;5.78;3.75;;;-5.60;99.90;;;;;;5056048;28;20237;-77
2024/01/09 06:49:02;;;;;;;8.93;4.18;;;-5.60;99.90;;;;;;5051999;28;20300;-78
2024/01/09 06:51:31;;;;;;;6.53;3.72;;;-5.60;99.90;;;;;;5054583;28;20220;-79
2024/01/09 06:53:58;;;;;;;7.20;3.65;;;-5.60;99.90;;;;;;5050685;28;20225;-79
2024/01/09 06:56:25;;;;;;;12.43;4.85;;;-5.60;99.90;;;;;;5054774;28;20214;-78
2024/01/09 06:58:52;;;;;;;7.10;3.60;;;-5.60;99.90;;;;;;5057691;28;20208;-78
2024/01/09 07:01:19;;;;;;;6.07;3.70;;;-5.60;99.90;;;;;;5052179;28;20248;-79
2024/01/09 07:03:45;;;;;;;9.23;4.25;;;-5.60;99.90;;;;;;5058261;28;20237;-79
2024/01/09 07:06:13;;;;;;;7.60;3.88;;;-5.60;99.90;;;;;;5062635;28;20234;-79
2024/01/09 07:08:39;;;;;;;6.85;4.25;;;-5.60;99.90;;;;;;5056500;28;20592;-79
2024/01/09 07:11:07;;;;;;;12.65;5.07;;;-5.60;99.90;;;;;;5055699;28;20209;-79
2024/01/09 07:13:34;;;;;;;5.85;4.18;;;-5.60;99.90;;;;;;5056063;28;20271;-80
2024/01/09 07:16:01;;;;;;;8.07;4.85;;;-5.60;99.90;;;;;;5056237;28;20296;-79
2024/01/09 07:18:28;;;;;;;10.50;5.28;;;-5.60;99.90;;;;;;5060812;28;20622;-79
2024/01/09 07:20:55;;;;;;;7.40;4.50;;;-5.60;99.90;;;;;;5056439;28;20584;-79
2024/01/09 07:23:26;;;;;;;8.50;4.45;;;-5.60;99.90;;;;;;5055782;28;20241;-79
2024/01/09 07:25:53;;;;;;;9.50;5.05;;;-5.60;99.90;;;;;;5055757;28;20263;-78
2024/01/09 07:28:20;;;;;;;10.30;5.25;;;-5.60;99.90;;;;;;5061090;28;20209;-78
2024/01/09 07:30:47;;;;;;;9.93;4.00;;;-5.60;99.90;;;;;;5054762;28;20220;-80
2024/01/09 07:33:15;;;;;;;5.82;3.72;;;-5.60;99.90;;;;;;5055312;28;20244;-78
2024/01/09 07:35:41;;;;;;;9.25;4.90;;;-5.70;99.90;;;;;;5054793;28;20591;-78
2024/01/09 07:38:08;;;;;;;14.85;5.50;;;-5.70;99.90;;;;;;5053996;28;20220;-78
2024/01/09 07:40:36;;;;;;;6.95;3.50;;;-5.70;99.90;;;;;;5055483;28;20213;-79
2024/01/09 07:43:03;;;;;;;7.82;4.07;;;-5.60;99.90;;;;;;5049904;28;20266;-79
2024/01/09 07:45:30;;;;;;;8.68;4.50;;;-5.60;99.90;;;;;;5057140;28;20691;-79
2024/01/09 07:47:57;;;;;;;11.32;6.00;;;-5.60;99.90;;;;;;5056724;28;20201;-79
2024/01/09 07:50:24;;;;;;;9.68;4.85;;;-5.60;99.90;;;;;;5053739;28;20229;-79
2024/01/09 07:52:51;;;;;;;8.15;5.10;;;-5.60;99.90;;;;;;5045567;28;20229;-79
2024/01/09 07:55:18;;;;;;;7.25;4.05;;;-5.60;99.90;;;;;;5053644;28;20201;-79
2024/01/09 07:57:46;;;;;;;8.68;5.40;;;-5.60;99.90;;;;;;5053379;28;20241;-78
2024/01/09 08:00:14;;;;;;;8.52;3.83;;;-5.60;99.90;;;;;;5054832;28;20198;-79
2024/01/09 08:02:41;;;;;;;8.93;5.68;;;-5.60;99.90;;;;;;5053951;28;20328;-79
2024/01/09 08:05:08;;;;;;;7.90;4.75;;;-5.60;99.90;;;;;;5051656;28;20206;-79
2024/01/09 08:07:36;;;;;;;10.23;5.85;;;-5.50;99.90;;;;;;5054668;28;20600;-80
2024/01/09 08:10:03;;;;;;;8.38;4.65;;;-5.60;99.90;;;;;;5061647;28;20214;-80
2024/01/09 08:12:30;;;;;;;16.30;5.30;;;-5.50;99.90;;;;;;5055157;28;20312;-79
2024/01/09 08:14:58;;;;;;;9.95;4.70;;;-5.50;99.90;;;;;;5061899;28;20652;-79
2024/01/09 08:17:25;;;;;;;7.00;4.38;;;-5.50;99.90;;;;;;5063297;28;20208;-81
2024/01/09 08:19:52;;;;;;;7.90;3.80;;;-5.50;99.90;;;;;;5048906;28;20202;-80
2024/01/09 08:22:19;;;;;;;7.68;4.68;;;-5.50;99.90;;;;;;5055208;28;20644;-80
2024/01/09 08:24:45;;;;;;;9.85;4.53;;;-5.40;99.90;;;;;;5054649;28;20214;-78
2024/01/09 08:27:12;;;;;;;6.68;3.53;;;-5.40;99.90;;;;;;5056687;28;20209;-79
2024/01/09 08:29:39;;;;;;;8.10;3.63;;;-5.40;99.90;;;;;;5053379;28;20315;-81
2024/01/09 08:32:09;;;;;;;7.10;4.40;;;-5.30;99.90;;;;;;5061666;28;20225;-79
2024/01/09 08:34:36;;;;;;;8.13;4.50;;;-5.30;99.90;;;;;;5050582;28;20288;-79
2024/01/09 08:37:03;;;;;;;8.68;4.25;;;-5.30;99.90;;;;;;5053345;28;20209;-79
2024/01/09 08:39:30;;;;;;;6.85;4.25;;;-5.30;99.90;;;;;;5054780;28;20288;-80
2024/01/09 08:41:57;;;;;;;11.57;5.43;;;-5.20;99.90;;;;;;5055711;28;20212;-79
2024/01/09 08:44:25;;;;;;;8.05;3.90;;;-5.20;99.90;;;;;;5055474;28;20205;-79
2024/01/09 08:46:52;;;;;;;8.40;5.03;;;-5.20;99.90;;;;;;5059858;28;20206;-79
2024/01/09 08:49:20;;;;;;;6.85;4.35;;;-5.20;99.90;;;;;;5055962;28;20232;-79
2024/01/09 08:51:47;;;;;;;6.53;4.25;;;-5.10;99.90;;;;;;5059310;28;20209;-80
2024/01/09 08:54:14;;;;;;;7.97;4.28;;;-5.10;99.90;;;;;;5068452;28;20208;-80
2024/01/09 08:56:42;;;;;;;9.50;4.38;;;-5.10;99.90;;;;;;5056506;28;20220;-84
2024/01/09 08:59:09;;;;;;;10.77;5.18;;;-5.00;99.90;;;;;;5056533;28;20255;-79
2024/01/09 09:01:36;;;;;;;7.38;4.20;;;-5.00;99.90;;;;;;5064062;28;20736;-77
2024/01/09 09:04:03;;;;;;;7.85;5.25;;;-4.90;99.90;;;;;;5066979;28;20296;-77
2024/01/09 09:06:31;;;;;;;9.80;3.50;;;-4.90;99.90;;;;;;5064290;28;20288;-77
2024/01/09 09:08:59;;;;;;;7.65;4.82;;;-4.90;99.90;;;;;;5067042;28;20284;-78
2024/01/09 09:11:25;;;;;;;6.03;3.88;;;-4.90;99.90;;;;;;5060628;28;20221;-78
2024/01/09 09:13:52;;;;;;;7.85;4.25;;;-4.80;99.90;;;;;;5057877;28;20225;-78
2024/01/09 09:16:19;;;;;;;7.57;4.38;;;-4.70;99.90;;;;;;5060714;28;20206;-78
2024/01/09 09:18:46;;;;;;;6.65;4.38;;;-4.80;99.90;;;;;;5060039;28;20213;-79
2024/01/09 09:21:12;;;;;;;12.35;5.15;;;-4.70;99.90;;;;;;5063408;28;20207;-77
2024/01/09 09:23:41;;;;;;;6.45;4.05;;;-4.70;99.90;;;;;;5059898;28;20269;-78
2024/01/09 09:26:08;;;;;;;5.43;3.47;;;-4.60;99.90;;;;;;5061547;28;20300;-77
2024/01/09 09:28:34;;;;;;;11.10;4.97;;;-4.60;99.90;;;;;;5065401;28;20206;-78
2024/01/09 09:31:01;;;;;;;7.63;4.20;;;-4.60;99.90;;;;;;5060544;28;20231;-80
2024/01/09 09:33:31;;;;;;;8.63;4.63;;;-4.50;99.90;;;;;;5061531;28;20257;-79
2024/01/09 09:35:58;;;;;;;5.93;3.38;;;-4.50;99.90;;;;;;5065559;28;20225;-79
2024/01/09 09:38:29;;;;;;;9.68;5.03;;;-4.40;99.90;;;;;;5055390;28;20224;-80
2024/01/09 09:40:58;;;;;;;5.97;4.00;;;-4.30;99.90;;;;;;5060263;28;20576;-77
2024/01/09 09:43:25;;;;;;;6.50;3.08;;;-4.30;99.90;;;;;;5059708;28;20233;-80
2024/01/09 09:45:56;;;;;;;7.25;4.05;;;-4.30;99.90;;;;;;5064672;28;20206;-78
2024/01/09 09:48:25;;;;;;;11.00;4.90;;;-4.20;99.90;;;;;;5061539;28;20210;-77
2024/01/09 09:50:54;;;;;;;5.95;3.85;;;-4.20;99.90;;;;;;5050295;28;20316;-78
2024/01/09 09:53:22;;;;;;;7.32;3.75;;;-4.20;99.90;;;;;;5057779;28;20225;-77
2024/01/09 09:55:50;;;;;;;6.72;4.10;;;-4.10;99.90;;;;;;5057056;28;20778;-77
2024/01/09 09:58:18;;;;;;;8.32;5.07;;;-4.10;99.90;;;;;;5056270;28;20205;-78
2024/01/09 10:00:45;;;;;;;5.90;3.88;;;-4.00;99.90;;;;;;5056478;28;20210;-78
2024/01/09 10:03:12;;;;;;;7.10;3.97;;;-4.00;99.90;;;;;;5055045;28;20316;-78
2024/01/09 10:05:41;;;;;;;6.25;3.28;;;-3.90;99.90;;;;;;5053947;28;20264;-77
2024/01/09 10:08:09;;;;;;;6.85;4.22;;;-3.90;99.90;;;;;;5054778;28;20240;-77
2024/01/09 10:10:37;;;;;;;6.15;3.75;;;-3.80;99.90;;;;;;5053468;28;20217;-77
2024/01/09 10:13:04;;;;;;;6.90;3.45;;;-3.80;99.90;;;;;;5048616;28;20332;-77
2024/01/09 10:15:38;;;;;;;6.55;3.67;;;-3.80;99.90;;;;;;5051377;28;20233;-78
2024/01/09 10:18:17;;;;;;;7.35;3.65;;;-3.70;99.90;;;;;;5051897;28;20263;-79
2024/01/09 10:20:47;;;;;;;5.22;3.33;;;-3.60;99.90;;;;;;5058464;28;20288;-80
2024/01/09 10:23:14;;;;;;;5.65;2.85;;;-3.50;99.90;;;;;;5054704;28;20241;-79
2024/01/09 10:25:41;;;;;;;7.10;3.90;;;-3.50;99.90;;;;;;5055686;28;20901;-79
2024/01/09 10:28:14;;;;;;;6.75;3.25;;;-3.50;99.90;;;;;;5053979;28;20233;-79
2024/01/09 10:30:43;;;;;;;6.30;3.80;;;-3.40;99.90;;;;;;5055248;28;20221;-82
2024/01/09 10:33:10;;;;;;;9.43;5.38;;;-3.40;99.90;;;;;;5052983;28;20320;-78
2024/01/09 10:35:37;;;;;;;7.43;3.45;;;-3.30;99.90;;;;;;5056129;28;20240;-79
2024/01/09 10:38:05;;;;;;;10.38;3.55;;;-3.20;99.90;;;;;;5056665;28;20218;-80
2024/01/09 10:40:32;;;;;;;7.35;3.90;;;-3.20;99.90;;;;;;5055215;28;20209;-77
2024/01/09 10:42:59;;;;;;;7.75;3.58;;;-3.10;99.90;;;;;;5057437;28;20224;-78
2024/01/09 10:45:27;;;;;;;14.05;3.42;;;-3.10;99.90;;;;;;5059866;28;20296;-78
2024/01/09 10:47:55;;;;;;;6.03;3.33;;;-3.00;99.90;;;;;;5054312;28;20714;-79
2024/01/09 10:50:22;;;;;;;5.35;3.50;;;-2.80;99.90;;;;;;5057038;28;20700;-78
2024/01/09 10:52:49;;;;;;;4.30;3.00;;;-2.70;99.90;;;;;;5057103;28;20230;-77
2024/01/09 10:55:18;;;;;;;9.25;4.20;;;-2.70;99.90;;;;;;5059906;28;20896;-78
2024/01/09 10:57:47;;;;;;;6.40;3.50;;;-2.60;99.90;;;;;;5056280;28;20270;-76
2024/01/09 11:00:16;;;;;;;7.68;3.28;;;-2.60;99.90;;;;;;5059071;28;20198;-79
2024/01/09 11:02:43;;;;;;;9.35;2.88;;;-2.50;97.90;;;;;;5056010;28;20217;-79
2024/01/09 11:05:11;;;;;;;6.45;3.30;;;-2.50;98.40;;;;;;5060370;28;20733;-80
2024/01/09 11:07:38;;;;;;;6.95;3.70;;;-2.50;97.10;;;;;;5057554;28;20217;-79
2024/01/09 11:10:06;;;;;;;6.00;3.45;;;-2.50;95.50;;;;;;5058294;28;20221;-79
2024/01/09 11:12:36;;;;;;;6.15;3.25;;;-2.40;96.00;;;;;;5054188;28;20313;-78
2024/01/09 11:15:10;;;;;;;4.63;2.95;;;-2.40;95.70;;;;;;5054781;28;20216;-79
2024/01/09 11:17:38;;;;;;;4.45;2.63;;;-2.30;94.20;;;;;;5054276;28;20229;-78
2024/01/09 11:20:06;;;;;;;5.60;3.17;;;-2.30;93.40;;;;;;5055215;28;20216;-80
2024/01/09 11:22:36;;;;;;;5.63;3.50;;;-2.20;94.00;;;;;;5054699;28;20226;-77
2024/01/09 11:25:05;;;;;;;7.63;2.97;;;-2.10;92.80;;;;;;5055166;28;20684;-79
2024/01/09 11:27:40;;;;;;;9.38;3.10;;;-1.90;93.40;;;;;;5054357;28;20208;-78
2024/01/09 11:30:10;;;;;;;5.28;3.15;;;-1.50;91.80;;;;;;5048034;28;20781;-78
2024/01/09 11:32:38;;;;;;;5.05;3.00;;;-0.80;90.20;;;;;;5057698;28;20227;-78
2024/01/09 11:35:10;;;;;;;5.10;3.53;;;0.10;86.20;;;;;;5049232;28;20209;-79
2024/01/09 11:37:39;;;;;;;5.40;3.00;;;1.60;81.50;;;;;;5054760;28;20207;-78
2024/01/09 11:40:08;;;;;;;6.57;3.43;;;3.30;75.90;;;;;;5055138;28;20451;-78
2024/01/09 11:42:36;;;;;;;5.27;3.10;;;4.80;69.30;;;;;;5053848;28;20472;-79
2024/01/09 11:45:05;;;;;;;8.10;2.60;;;6.10;66.10;;;;;;5054688;28;20457;-79
2024/01/09 11:47:32;;;;;;;5.10;3.20;;;8.20;60.80;;;;;;5054029;28;20462;-79
2024/01/09 11:49:59;;;;;;;4.93;3.47;;;9.50;56.30;;;;;;5052304;28;20495;-79
2024/01/09 11:52:27;;;;;;;4.30;3.37;;;9.00;51.70;;;;;;5052946;28;20471;-79
2024/01/09 11:54:56;;;;;;;7.00;3.80;;;8.90;51.30;;;;;;5054285;28;20460;-79
2024/01/09 11:57:23;;;;;;;5.03;4.13;;;7.50;50.10;;;;;;5052773;28;20458;-79
2024/01/09 11:59:49;;;;;;;5.73;3.23;;;6.90;51.20;;;;;;5056020;28;20458;-78
2024/01/09 12:02:19;;;;;;;4.50;2.80;;;5.60;50.40;;;;;;5064973;28;20709;-79
2024/01/09 12:04:46;;;;;;;4.50;3.10;;;6.30;52.50;;;;;;5071906;28;20554;-78
2024/01/09 12:07:13;;;;;;;4.70;2.90;;;7.20;51.90;;;;;;5063030;28;21008;-78
2024/01/09 12:09:40;;;;;;;4.90;3.30;;;8.70;51.50;;;;;;5065557;28;20524;-77
2024/01/09 12:12:10;;;;;;;6.17;3.50;;;10.10;48.90;;;;;;5065579;28;20487;-81
2024/01/09 12:14:37;;;;;;;5.20;2.93;;;11.10;47.80;;;;;;5066515;28;20463;-81
2024/01/09 12:17:18;;;;;;;5.57;3.80;;;11.90;46.00;;;;;;5058305;28;20463;-80
2024/01/09 12:19:45;;;;;;;4.20;2.90;;;12.20;45.00;;;;;;5056957;28;20506;-80
2024/01/09 12:22:12;;;;;;;5.67;3.80;;;11.60;43.20;;;;;;5056450;28;21009;-79
2024/01/09 12:24:39;;;;;;;5.33;3.30;;;9.80;43.40;;;;;;5056324;28;20527;-80
2024/01/09 12:27:07;;;;;;;4.37;3.07;;;8.50;44.60;;;;;;5058537;28;20533;-78
2024/01/09 12:29:35;;;;;;;4.63;2.97;;;6.00;45.00;;;;;;5058935;28;20459;-77
2024/01/09 12:32:03;;;;;;;4.63;3.47;;;4.60;46.90;;;;;;5057567;28;20505;-78
2024/01/09 12:34:30;;;;;;;4.33;3.03;;;4.20;48.20;;;;;;5056245;28;20878;-79
2024/01/09 12:36:58;;;;;;;5.90;3.23;;;3.30;49.20;;;;;;5056337;28;21044;-79
2024/01/09 12:39:25;;;;;;;7.70;3.23;;;2.90;50.20;;;;;;5056557;28;20465;-79
2024/01/09 12:42:04;;;;;;;5.07;3.60;;;2.40;51.60;;;;;;5054024;28;20458;-78
2024/01/09 12:44:32;;;;;;;4.60;2.90;;;2.00;52.50;;;;;;5067091;28;20538;-79
2024/01/09 12:47:02;;;;;;;5.00;3.10;;;1.80;53.40;;;;;;5056189;28;20495;-79
2024/01/09 12:49:28;;;;;;;5.17;3.07;;;1.60;53.00;;;;;;5057454;28;20539;-79
2024/01/09 12:51:56;;;;;;;4.10;3.20;;;1.70;53.30;;;;;;5051355;28;20571;-79
2024/01/09 12:54:23;;;;;;;4.07;2.80;;;1.90;53.40;;;;;;5062470;28;20520;-79
2024/01/09 12:56:51;;;;;;;4.13;2.70;;;2.50;53.80;;;;;;5065254;28;20447;-80